createdAt,value
2022-09-28T05:06:57.938Z,64.38
2022-09-28T05:09:01.257Z,64.28
2022-09-28T05:11:04.803Z,64.56
2022-09-28T05:13:06.617Z,64.72
2022-09-28T05:15:08.556Z,64.24
2022-09-28T05:17:10.603Z,63.94
2022-09-28T05:19:12.324Z,64.13
2022-09-28T05:21:15.371Z,64.66
2022-09-28T05:23:17.675Z,64.25
2022-09-28T05:25:20.664Z,63.79
2022-09-28T05:27:22.164Z,64.29
2022-09-28T05:29:23.681Z,64.05
2022-09-28T05:31:25.436Z,64.13
2022-09-28T05:33:27.261Z,63.53
2022-09-28T05:35:28.813Z,63.49
2022-09-28T05:37:30.303Z,63.42
2022-09-28T05:39:31.785Z,62.79
2022-09-28T05:41:34.737Z,62.17
2022-09-28T05:43:36.306Z,62.97
2022-09-28T05:45:40.646Z,62.73
2022-09-28T05:47:43.529Z,63.90
2022-09-28T05:49:45.060Z,62.92
2022-09-28T05:51:49.475Z,62.62
2022-09-28T05:53:50.985Z,62.96
2022-09-28T05:55:52.681Z,62.85
2022-09-28T05:57:57.973Z,62.08
2022-09-28T05:59:59.494Z,62.16
2022-09-28T06:02:01.166Z,62.86
2022-09-28T06:04:02.768Z,62.63
2022-09-28T06:06:04.513Z,63.86
2022-09-28T06:08:08.090Z,64.25
2022-09-28T06:10:09.576Z,64.99
2022-09-28T06:12:11.086Z,64.35
2022-09-28T06:14:14.055Z,63.93
2022-09-28T06:16:15.923Z,64.67
2022-09-28T06:18:17.498Z,64.27
2022-09-28T06:20:19.062Z,64.40
2022-09-28T06:22:20.599Z,64.39
2022-09-28T06:24:22.816Z,64.25
2022-09-28T06:26:24.555Z,64.54
2022-09-28T06:28:26.079Z,65.00
2022-09-28T06:30:31.304Z,64.66
2022-09-28T06:32:32.925Z,64.60
2022-09-28T06:34:34.604Z,64.01
2022-09-28T06:36:36.155Z,64.45
2022-09-28T06:38:37.686Z,65.03
2022-09-28T06:40:39.248Z,62.33
2022-09-28T06:42:40.862Z,62.37
2022-09-28T06:44:42.401Z,62.49
2022-09-28T06:46:45.374Z,64.17
2022-09-28T06:48:46.933Z,63.91
2022-09-28T06:50:50.252Z,62.72
2022-09-28T06:52:52.920Z,63.16
2022-09-28T06:54:54.409Z,63.97
2022-09-28T06:56:55.956Z,63.52
2022-09-28T06:58:57.472Z,64.54
2022-09-28T07:00:59.057Z,64.20
2022-09-28T07:03:03.270Z,64.91
2022-09-28T07:05:05.653Z,63.49
2022-09-28T07:07:08.521Z,64.01
2022-09-28T07:09:26.720Z,63.34
2022-09-28T07:11:36.669Z,63.20
2022-09-28T07:13:53.436Z,63.14
2022-09-28T07:15:55.672Z,63.51
2022-09-28T07:18:01.856Z,63.76
2022-09-28T07:20:17.247Z,60.81
2022-09-28T07:22:27.426Z,59.84
2022-09-28T07:24:40.356Z,60.76
2022-09-28T07:26:42.289Z,59.15
2022-09-28T07:28:43.814Z,59.85
2022-09-28T07:30:45.400Z,60.50
2022-09-28T07:32:47.183Z,59.57
2022-09-28T07:34:48.861Z,56.52
2022-09-28T07:36:51.896Z,58.63
2022-09-28T07:38:53.982Z,58.73
2022-09-28T07:40:56.809Z,57.32
2022-09-28T07:43:04.326Z,57.64
2022-09-28T07:45:06.867Z,57.60
2022-09-28T07:47:08.686Z,57.09
2022-09-28T07:49:12.394Z,58.58
2022-09-28T07:51:14.168Z,58.68
2022-09-28T07:53:17.809Z,59.00
2022-09-28T07:55:19.449Z,58.54
2022-09-28T07:57:23.288Z,59.00
2022-09-28T07:59:25.180Z,57.45
2022-09-28T08:01:27.023Z,56.46
2022-09-28T08:03:28.620Z,54.96
2022-09-28T08:05:31.112Z,54.12
2022-09-28T08:07:32.691Z,53.36
2022-09-28T08:09:35.900Z,53.18
2022-09-28T08:11:37.887Z,51.93
2022-09-28T08:13:40.091Z,51.80
2022-09-28T08:15:41.694Z,52.47
2022-09-28T08:17:47.346Z,51.55
2022-09-28T08:19:49.498Z,50.96
2022-09-28T08:21:53.569Z,52.43
2022-09-28T08:23:55.147Z,52.87
2022-09-28T08:25:58.510Z,51.43
2022-09-28T08:28:00.081Z,53.37
2022-09-28T08:30:01.847Z,50.98
2022-09-28T08:32:06.552Z,50.67
2022-09-28T08:34:08.168Z,50.81
2022-09-28T08:36:12.088Z,48.63
2022-09-28T08:38:13.774Z,48.13
2022-09-28T08:40:19.794Z,49.41
2022-09-28T08:42:34.920Z,48.97
2022-09-28T08:44:41.438Z,48.33
2022-09-28T08:46:47.926Z,50.08
2022-09-28T08:49:20.559Z,48.75
2022-09-28T08:51:19.731Z,50.35
2022-09-28T08:53:35.752Z,50.25
2022-09-28T08:55:39.569Z,50.36
2022-09-28T08:57:50.391Z,50.37
2022-09-28T08:59:54.603Z,49.32
2022-09-28T09:02:00.251Z,49.50
2022-09-28T09:04:05.131Z,48.50
2022-09-28T09:06:23.186Z,49.52
2022-09-28T09:08:37.265Z,48.63
2022-09-28T09:10:49.572Z,50.06
2022-09-28T09:13:05.873Z,49.59
2022-09-28T09:15:33.680Z,49.34
2022-09-28T09:17:47.599Z,47.30
2022-09-28T09:19:53.618Z,48.55
2022-09-28T09:21:59.940Z,47.24
2022-09-28T09:24:10.689Z,48.12
2022-09-28T09:26:22.215Z,50.74
2022-09-28T09:28:58.179Z,46.54
2022-09-28T09:31:11.674Z,48.31
2022-09-28T09:33:35.784Z,47.30
2022-09-28T09:36:16.294Z,46.46
2022-09-28T09:38:32.804Z,47.76
2022-09-28T09:40:49.718Z,47.15
2022-09-28T09:43:04.181Z,46.61
2022-09-28T09:45:23.859Z,48.06
2022-09-28T09:47:31.670Z,45.39
2022-09-28T09:49:38.590Z,45.23
2022-09-28T09:51:54.669Z,46.00
2022-09-28T09:54:09.712Z,46.46
2022-09-28T09:56:16.046Z,46.24
2022-09-28T09:58:20.987Z,46.85
2022-09-28T10:00:23.886Z,46.60
2022-09-28T10:02:28.536Z,46.13
2022-09-28T10:04:35.878Z,45.06
2022-09-28T10:06:39.025Z,43.68
2022-09-28T10:08:44.187Z,44.03
2022-09-28T10:10:51.393Z,43.25
2022-09-28T10:12:53.685Z,44.56
2022-09-28T10:14:55.367Z,45.15
2022-09-28T10:16:58.790Z,45.30
2022-09-28T10:19:00.840Z,44.55
2022-09-28T10:21:02.851Z,43.87
2022-09-28T10:23:09.150Z,43.86
2022-09-28T10:25:12.764Z,43.55
2022-09-28T10:27:18.004Z,44.31
2022-09-28T10:29:21.363Z,44.33
2022-09-28T10:31:40.818Z,46.45
2022-09-28T10:33:43.790Z,45.42
2022-09-28T10:35:45.355Z,44.47
2022-09-28T10:37:49.961Z,45.46
2022-09-28T10:39:53.925Z,48.09
2022-09-28T10:41:55.713Z,46.19
2022-09-28T10:44:01.288Z,42.85
2022-09-28T10:46:06.724Z,43.25
2022-09-28T10:48:17.813Z,43.60
2022-09-28T10:50:23.694Z,44.75
2022-09-28T10:52:35.668Z,42.97
2022-09-28T10:54:37.333Z,41.34
2022-09-28T10:56:40.431Z,41.06
2022-09-28T10:58:42.171Z,40.48
2022-09-28T11:00:44.928Z,39.40
2022-09-28T11:02:46.724Z,39.78
2022-09-28T11:04:56.562Z,41.21
2022-09-28T11:07:01.895Z,41.23
2022-09-28T11:09:07.767Z,39.62
2022-09-28T11:14:08.688Z,40.07
2022-09-28T11:16:21.171Z,39.21
2022-09-28T11:18:28.674Z,38.76
2022-09-28T11:20:33.486Z,39.15
2022-09-28T11:22:39.656Z,39.76
2022-09-28T11:24:41.220Z,40.34
2022-09-28T11:26:45.367Z,40.26
2022-09-28T11:28:51.849Z,40.96
2022-09-28T11:30:54.450Z,41.42
2022-09-28T11:33:01.920Z,41.29
2022-09-28T11:35:03.785Z,41.02
2022-09-28T11:37:26.574Z,43.81
2022-09-28T11:39:38.809Z,43.12
2022-09-28T11:41:53.401Z,43.42
2022-09-28T11:44:13.204Z,43.08
2022-09-28T11:46:24.688Z,42.39
2022-09-28T11:48:34.029Z,42.86
2022-09-28T11:50:45.581Z,41.71
2022-09-28T11:52:53.460Z,43.67
2022-09-28T11:55:01.316Z,42.65
2022-09-28T11:57:06.290Z,42.12
2022-09-28T11:59:14.992Z,44.61
2022-09-28T12:01:23.118Z,44.80
2022-09-28T12:03:31.019Z,42.81
2022-09-28T12:05:38.457Z,44.15
2022-09-28T12:07:44.454Z,42.68
2022-09-28T12:09:54.349Z,42.53
2022-09-28T12:12:02.338Z,39.69
2022-09-28T12:14:10.235Z,41.55
2022-09-28T12:16:38.930Z,42.18
2022-09-28T12:18:44.667Z,46.07
2022-09-28T12:20:51.671Z,44.28
2022-09-28T12:23:05.211Z,42.03
2022-09-28T12:25:13.171Z,40.46
2022-09-28T12:27:21.432Z,40.69
2022-09-28T12:29:29.206Z,40.87
2022-09-28T12:31:36.903Z,39.88
2022-09-28T12:33:39.748Z,38.93
2022-09-28T12:35:59.069Z,39.66
2022-09-28T12:38:20.800Z,41.90
2022-09-28T12:40:41.404Z,39.95
2022-09-28T12:43:02.960Z,40.57
2022-09-28T12:45:16.681Z,40.87
2022-09-28T12:47:35.989Z,40.62
2022-09-28T12:50:37.016Z,40.30
2022-09-28T12:52:29.010Z,42.39
2022-09-28T12:54:50.007Z,40.87
2022-09-28T12:57:04.560Z,39.64
2022-09-28T12:59:18.899Z,40.73
2022-09-28T13:01:46.388Z,40.08
2022-09-28T13:04:04.902Z,40.91
2022-09-28T13:06:37.832Z,40.36
2022-09-28T13:08:49.431Z,41.81
2022-09-28T13:11:07.879Z,41.04
2022-09-28T13:13:26.026Z,40.30
2022-09-28T13:15:39.542Z,40.40
2022-09-28T13:17:56.604Z,40.38
2022-09-28T13:20:02.761Z,41.34
2022-09-28T13:22:21.124Z,39.41
2022-09-28T13:24:32.558Z,40.02
2022-09-28T13:26:37.805Z,42.07
2022-09-28T13:28:40.679Z,41.83
2022-09-28T13:30:44.917Z,40.86
2022-09-28T13:32:48.947Z,40.98
2022-09-28T13:34:50.728Z,40.59
2022-09-28T13:37:22.279Z,40.59
2022-09-28T13:39:46.490Z,39.81
2022-09-28T13:41:48.725Z,40.08
2022-09-28T13:44:11.037Z,40.87
2022-09-28T13:46:25.761Z,41.87
2022-09-28T13:48:39.827Z,41.00
2022-09-28T13:51:04.817Z,41.09
2022-09-28T13:53:18.313Z,41.90
2022-09-28T13:55:32.871Z,42.46
2022-09-28T13:57:48.639Z,40.12
2022-09-28T14:00:02.327Z,40.62
2022-09-28T14:02:21.934Z,40.08
2022-09-28T14:04:25.395Z,41.06
2022-09-28T14:06:28.386Z,40.76
2022-09-28T14:08:37.517Z,43.04
2022-09-28T14:10:50.027Z,40.60
2022-09-28T14:12:51.962Z,39.67
2022-09-28T14:14:53.547Z,39.56
2022-09-28T14:17:31.462Z,41.80
2022-09-28T14:19:34.921Z,40.39
2022-09-28T14:21:50.986Z,42.01
2022-09-28T14:24:19.028Z,39.82
2022-09-28T14:26:47.260Z,41.06
2022-09-28T14:29:02.031Z,40.13
2022-09-28T14:31:08.752Z,41.05
2022-09-28T14:33:22.535Z,39.89
2022-09-28T14:35:31.615Z,39.09
2022-09-28T14:37:36.903Z,41.73
2022-09-28T14:39:43.705Z,41.51
2022-09-28T14:41:45.867Z,40.45
2022-09-28T14:44:02.852Z,40.07
2022-09-28T14:46:31.389Z,40.21
2022-09-28T14:48:46.737Z,40.54
2022-09-28T14:50:49.750Z,40.26
2022-09-28T14:52:54.216Z,41.13
2022-09-28T14:54:57.104Z,39.70
2022-09-28T14:57:07.713Z,39.85
2022-09-28T14:59:16.505Z,41.15
2022-09-28T15:01:21.100Z,39.36
2022-09-28T15:03:24.225Z,39.26
2022-09-28T15:05:29.876Z,39.52
2022-09-28T15:07:47.764Z,41.03
2022-09-28T15:09:51.323Z,40.75
2022-09-28T15:11:53.286Z,39.51
2022-09-28T15:14:06.023Z,39.34
2022-09-28T15:16:10.710Z,39.94
2022-09-28T15:18:40.023Z,39.02
2022-09-28T15:20:45.532Z,39.17
2022-09-28T15:22:51.231Z,39.14
2022-09-28T15:25:02.212Z,40.59
2022-09-28T15:27:14.886Z,38.53
2022-09-28T15:29:18.045Z,39.06
2022-09-28T15:31:22.019Z,39.25
2022-09-28T15:33:25.261Z,41.50
2022-09-28T15:35:27.914Z,40.58
2022-09-28T15:37:37.402Z,39.69
2022-09-28T15:39:43.369Z,39.49
2022-09-28T15:41:48.292Z,39.83
2022-09-28T15:44:06.271Z,41.15
2022-09-28T15:46:13.492Z,40.12
2022-09-28T15:48:20.131Z,40.13
2022-09-28T15:50:26.656Z,39.08
2022-09-28T15:52:34.336Z,40.34
2022-09-28T15:54:42.066Z,39.08
2022-09-28T15:56:53.805Z,39.13
2022-09-28T15:59:09.906Z,40.65
2022-09-28T16:01:25.389Z,41.04
2022-09-28T16:03:29.049Z,40.86
2022-09-28T16:05:40.792Z,42.74
2022-09-28T16:07:56.059Z,41.60
2022-09-28T16:10:04.565Z,43.13
2022-09-28T16:12:10.885Z,43.02
2022-09-28T16:14:19.415Z,43.16
2022-09-28T16:16:28.263Z,41.54
2022-09-28T16:18:31.356Z,42.54
2022-09-28T16:20:35.576Z,40.46
2022-09-28T16:22:37.722Z,38.48
2022-09-28T16:24:39.642Z,39.42
2022-09-28T16:26:41.300Z,39.21
2022-09-28T16:28:49.610Z,40.45
2022-09-28T16:31:00.981Z,42.09
2022-09-28T16:33:05.689Z,43.85
2022-09-28T16:35:23.468Z,42.83
2022-09-28T16:37:30.672Z,44.20
2022-09-28T16:39:32.380Z,44.08
2022-09-28T16:41:33.992Z,44.42
2022-09-28T16:43:36.079Z,44.12
2022-09-28T16:45:39.285Z,44.94
2022-09-28T16:47:40.896Z,45.93
2022-09-28T16:49:42.475Z,45.39
2022-09-28T16:51:45.116Z,44.99
2022-09-28T16:53:50.324Z,47.01
2022-09-28T16:55:51.878Z,44.86
2022-09-28T16:57:53.975Z,45.15
2022-09-28T16:59:55.483Z,46.08
2022-09-28T17:01:59.070Z,46.04
2022-09-28T17:04:01.287Z,46.02
2022-09-28T17:06:04.184Z,45.51
2022-09-28T17:08:05.995Z,45.51
2022-09-28T17:10:16.497Z,46.42
2022-09-28T17:12:20.680Z,46.45
2022-09-28T17:14:23.496Z,46.36
2022-09-28T17:16:50.979Z,47.21
2022-09-28T17:18:51.422Z,47.35
2022-09-28T17:20:55.370Z,46.90
2022-09-28T17:22:57.066Z,48.64
2022-09-28T17:24:58.649Z,48.34
2022-09-28T17:27:00.411Z,45.55
2022-09-28T17:29:02.264Z,46.04
2022-09-28T17:31:04.591Z,45.91
2022-09-28T17:33:06.302Z,46.41
2022-09-28T17:35:23.605Z,46.81
2022-09-28T17:37:26.622Z,46.61
2022-09-28T17:39:28.226Z,47.83
2022-09-28T17:41:29.893Z,48.01
2022-09-28T17:43:31.757Z,47.11
2022-09-28T17:45:36.722Z,48.10
2022-09-28T17:47:38.331Z,47.96
2022-09-28T17:49:45.932Z,46.58
2022-09-28T17:51:49.496Z,48.29
2022-09-28T17:53:51.137Z,49.10
2022-09-28T17:55:52.671Z,48.28
2022-09-28T17:57:56.218Z,46.55
2022-09-28T17:59:58.116Z,46.47
2022-09-28T18:02:02.629Z,47.39
2022-09-28T18:04:06.036Z,49.52
2022-09-28T18:06:12.878Z,50.55
2022-09-28T18:08:19.578Z,50.54
2022-09-28T18:10:24.217Z,51.88
2022-09-28T18:12:25.925Z,51.66
2022-09-28T18:14:27.622Z,51.69
2022-09-28T18:16:29.265Z,52.69
2022-09-28T18:18:31.773Z,50.28
2022-09-28T18:20:34.815Z,50.39
2022-09-28T18:22:36.957Z,50.73
2022-09-28T18:24:40.219Z,48.97
2022-09-28T18:26:42.386Z,52.48
2022-09-28T18:28:43.998Z,49.80
2022-09-28T18:30:45.752Z,53.27
2022-09-28T18:32:47.512Z,50.88
2022-09-28T18:34:49.314Z,53.00
2022-09-28T18:36:51.057Z,50.56
2022-09-28T18:38:55.735Z,50.89
2022-09-28T18:41:07.195Z,49.29
2022-09-28T18:43:08.936Z,49.04
2022-09-28T18:45:11.400Z,49.06
2022-09-28T18:47:13.587Z,48.95
2022-09-28T18:49:15.399Z,49.12
2022-09-28T18:51:17.142Z,50.30
2022-09-28T18:53:18.794Z,51.11
2022-09-28T18:55:20.775Z,51.66
2022-09-28T18:57:23.754Z,51.68
2022-09-28T18:59:25.926Z,52.05
2022-09-28T19:01:30.460Z,52.16
2022-09-28T19:03:32.671Z,52.11
2022-09-28T19:05:34.311Z,52.19
2022-09-28T19:07:36.143Z,51.99
2022-09-28T19:09:37.938Z,52.41
2022-09-28T19:11:39.848Z,52.57
2022-09-28T19:13:43.789Z,51.77
2022-09-28T19:15:45.531Z,52.42
2022-09-28T19:17:47.232Z,52.05
2022-09-28T19:19:48.979Z,52.34
2022-09-28T19:21:51.122Z,52.90
2022-09-28T19:23:53.004Z,52.53
2022-09-28T19:25:54.653Z,52.94
2022-09-28T19:27:56.247Z,52.82
2022-09-28T19:29:59.309Z,52.84
2022-09-28T19:32:01.408Z,52.97
2022-09-28T19:34:03.569Z,53.07
2022-09-28T19:36:07.920Z,53.07
2022-09-28T19:38:09.611Z,53.24
2022-09-28T19:40:11.170Z,53.64
2022-09-28T19:42:13.054Z,53.60
2022-09-28T19:44:17.460Z,53.84
2022-09-28T19:46:20.535Z,54.10
2022-09-28T19:48:26.033Z,54.22
2022-09-28T19:50:27.631Z,53.62
2022-09-28T19:52:29.409Z,53.79
2022-09-28T19:54:35.555Z,54.07
2022-09-28T19:56:38.045Z,54.22
2022-09-28T19:58:39.667Z,54.30
2022-09-28T20:00:41.176Z,54.16
2022-09-28T20:02:44.412Z,54.71
2022-09-28T20:04:46.592Z,54.49
2022-09-28T20:06:48.266Z,54.45
2022-09-28T20:08:50.635Z,54.29
2022-09-28T20:10:53.904Z,54.38
2022-09-28T20:12:55.632Z,54.40
2022-09-28T20:14:57.761Z,54.62
2022-09-28T20:16:59.524Z,54.59
2022-09-28T20:19:02.874Z,54.29
2022-09-28T20:21:06.558Z,54.20
2022-09-28T20:23:08.225Z,54.08
2022-09-28T20:25:10.294Z,53.98
2022-09-28T20:27:11.865Z,53.90
2022-09-28T20:29:13.617Z,54.39
2022-09-28T20:31:17.485Z,54.46
2022-09-28T20:33:28.592Z,54.11
2022-09-28T20:35:34.240Z,54.11
2022-09-28T20:37:35.802Z,54.52
2022-09-28T20:39:40.345Z,54.05
2022-09-28T20:41:44.314Z,54.27
2022-09-28T20:43:46.546Z,54.25
2022-09-28T20:45:49.655Z,54.07
2022-09-28T20:47:54.479Z,54.11
2022-09-28T20:49:56.029Z,53.77
2022-09-28T20:51:59.011Z,53.66
2022-09-28T20:54:01.057Z,53.68
2022-09-28T20:56:04.404Z,53.90
2022-09-28T20:58:06.010Z,54.01
2022-09-28T21:00:08.975Z,53.79
2022-09-28T21:02:11.955Z,53.53
2022-09-28T21:04:13.603Z,53.52
2022-09-28T21:06:16.235Z,53.42
2022-09-28T21:08:20.931Z,53.43
2022-09-28T21:10:22.531Z,53.82
2022-09-28T21:12:24.188Z,53.38
2022-09-28T21:14:26.522Z,53.46
2022-09-28T21:16:29.988Z,53.52
2022-09-28T21:18:31.593Z,53.81
2022-09-28T21:20:33.131Z,53.79
2022-09-28T21:22:34.796Z,53.74
2022-09-28T21:24:37.901Z,53.94
2022-09-28T21:26:39.504Z,54.15
2022-09-28T21:28:44.308Z,53.99
2022-09-28T21:30:46.101Z,54.11
2022-09-28T21:32:47.700Z,54.52
2022-09-28T21:34:49.286Z,54.33
2022-09-28T21:36:51.323Z,54.46
2022-09-28T21:38:53.341Z,54.65
2022-09-28T21:40:57.069Z,54.98
2022-09-28T21:42:58.772Z,55.08
2022-09-28T21:45:03.921Z,55.22
2022-09-28T21:47:05.814Z,55.07
2022-09-28T21:49:08.105Z,55.68
2022-09-28T21:51:13.943Z,55.79
2022-09-28T21:53:15.492Z,55.92
2022-09-28T21:55:17.235Z,55.81
2022-09-28T21:57:20.775Z,55.99
2022-09-28T21:59:22.513Z,56.08
2022-09-28T22:01:25.181Z,56.34
2022-09-28T22:03:27.218Z,56.47
2022-09-28T22:05:28.959Z,56.65
2022-09-28T22:07:30.540Z,57.00
2022-09-28T22:09:32.084Z,56.92
2022-09-28T22:11:33.889Z,57.17
2022-09-28T22:13:40.769Z,57.35
2022-09-28T22:15:42.274Z,57.18
2022-09-28T22:17:43.895Z,57.46
2022-09-28T22:19:45.408Z,57.77
2022-09-28T22:21:46.948Z,57.57
2022-09-28T22:23:48.917Z,57.97
2022-09-28T22:25:51.522Z,57.98
2022-09-28T22:27:53.101Z,57.92
2022-09-28T22:29:55.961Z,58.00
2022-09-28T22:31:57.653Z,58.27
2022-09-28T22:33:59.420Z,58.50
2022-09-28T22:36:01.498Z,57.94
2022-09-28T22:38:03.117Z,58.10
2022-09-28T22:40:05.630Z,58.29
2022-09-28T22:42:07.640Z,58.19
2022-09-28T22:44:09.315Z,58.10
2022-09-28T22:46:14.581Z,58.09
2022-09-28T22:48:16.250Z,58.35
2022-09-28T22:50:17.782Z,58.40
2022-09-28T22:52:19.288Z,58.12
2022-09-28T22:54:20.820Z,58.42
2022-09-28T22:56:22.480Z,58.09
2022-09-28T22:58:24.222Z,58.41
2022-09-28T23:00:25.748Z,58.30
2022-09-28T23:02:28.583Z,58.28
2022-09-28T23:04:30.062Z,58.37
2022-09-28T23:06:31.628Z,58.47
2022-09-28T23:08:33.787Z,58.52
2022-09-28T23:10:35.343Z,58.53
2022-09-28T23:12:36.942Z,58.46
2022-09-28T23:14:38.406Z,58.28
2022-09-28T23:16:40.087Z,58.38
2022-09-28T23:18:43.065Z,58.44
2022-09-28T23:20:44.713Z,58.61
2022-09-28T23:22:46.466Z,58.31
2022-09-28T23:24:48.022Z,58.70
2022-09-28T23:26:49.508Z,58.42
2022-09-28T23:28:52.463Z,58.50
2022-09-28T23:30:54.194Z,58.78
2022-09-28T23:32:55.703Z,58.72
2022-09-28T23:34:58.582Z,58.78
2022-09-28T23:37:00.087Z,58.94
2022-09-28T23:39:01.804Z,58.78
2022-09-28T23:41:03.339Z,58.96
2022-09-28T23:43:04.870Z,58.71
2022-09-28T23:45:07.392Z,58.65
2022-09-28T23:47:08.861Z,58.58
2022-09-28T23:49:10.501Z,58.68
2022-09-28T23:51:15.938Z,58.91
2022-09-28T23:53:17.556Z,59.03
2022-09-28T23:55:19.113Z,59.37
2022-09-28T23:57:20.656Z,59.16
2022-09-28T23:59:22.169Z,59.14
